createdAt,value
2023-03-07T00:00:55.120Z,2.38
2023-03-07T00:03:24.131Z,2.47
2023-03-07T00:06:02.147Z,2.30
2023-03-07T00:08:31.628Z,2.60
2023-03-07T00:11:03.261Z,2.15
2023-03-07T00:13:33.276Z,2.20
2023-03-07T00:16:05.761Z,2.63
2023-03-07T00:18:36.056Z,2.22
2023-03-07T00:21:09.572Z,2.17
2023-03-07T00:23:40.354Z,2.33
2023-03-07T00:26:12.066Z,2.35
2023-03-07T00:28:42.468Z,2.22
2023-03-07T00:31:13.113Z,2.78
2023-03-07T00:33:42.436Z,2.33
2023-03-07T00:36:14.128Z,2.05
2023-03-07T00:38:43.382Z,2.47
2023-03-07T00:41:14.623Z,2.85
2023-03-07T00:46:14.610Z,2.35
2023-03-07T00:48:43.869Z,2.78
2023-03-07T00:51:15.925Z,2.42
2023-03-07T00:53:45.273Z,2.50
2023-03-07T00:56:16.712Z,2.40
2023-03-07T00:58:47.665Z,2.17
2023-03-07T01:01:20.562Z,2.40
2023-03-07T01:03:53.443Z,2.47
2023-03-07T01:06:24.668Z,2.50
2023-03-07T01:08:57.948Z,2.53
2023-03-07T01:11:28.699Z,2.95
2023-03-07T01:13:58.527Z,2.43
2023-03-07T01:16:31.198Z,3.20
2023-03-07T01:19:02.206Z,2.95
2023-03-07T01:24:04.384Z,3.00
2023-03-07T01:26:34.746Z,2.90
2023-03-07T01:29:05.767Z,2.72
2023-03-07T01:31:38.804Z,2.72
2023-03-07T01:34:08.055Z,2.90
2023-03-07T01:36:38.776Z,2.97
2023-03-07T01:39:13.146Z,3.00
2023-03-07T01:41:47.563Z,2.88
2023-03-07T01:44:19.858Z,3.10
2023-03-07T01:46:55.340Z,2.90
2023-03-07T01:49:31.443Z,2.83
2023-03-07T01:52:06.851Z,3.05
2023-03-07T01:54:41.690Z,3.08
2023-03-07T01:57:11.242Z,3.28
2023-03-07T01:59:44.939Z,3.10
2023-03-07T02:02:19.745Z,3.10
2023-03-07T02:04:53.743Z,2.60
2023-03-07T02:07:26.816Z,2.53
2023-03-07T02:09:58.353Z,2.80
2023-03-07T02:12:27.554Z,2.58
2023-03-07T02:14:57.166Z,2.97
2023-03-07T02:17:28.128Z,2.60
2023-03-07T02:20:11.393Z,2.88
2023-03-07T02:22:41.466Z,2.30
2023-03-07T02:25:19.667Z,2.80
2023-03-07T02:27:53.170Z,2.28
2023-03-07T02:30:24.251Z,2.50
2023-03-07T02:32:54.769Z,2.55
2023-03-07T02:35:25.709Z,2.45
2023-03-07T02:38:02.813Z,2.33
2023-03-07T02:40:33.832Z,2.55
2023-03-07T02:43:09.599Z,2.47
2023-03-07T02:45:41.034Z,2.20
2023-03-07T02:48:10.046Z,1.90
2023-03-07T02:50:39.106Z,2.42
2023-03-07T02:53:08.178Z,2.95
2023-03-07T02:55:37.184Z,2.13
2023-03-07T02:58:09.309Z,2.08
2023-03-07T03:00:38.327Z,2.28
2023-03-07T03:03:07.694Z,2.08
2023-03-07T03:05:36.762Z,1.83
2023-03-07T03:08:06.182Z,2.15
2023-03-07T03:10:35.233Z,1.90
2023-03-07T03:13:04.369Z,1.75
2023-03-07T03:15:34.961Z,2.35
2023-03-07T03:18:04.201Z,2.50
2023-03-07T03:20:33.241Z,1.75
2023-03-07T03:23:02.286Z,2.20
2023-03-07T03:25:31.540Z,2.22
2023-03-07T03:28:00.785Z,2.28
2023-03-07T03:30:33.546Z,2.10
2023-03-07T03:33:04.976Z,2.05
2023-03-07T03:35:34.763Z,2.33
2023-03-07T03:38:04.377Z,2.40
2023-03-07T03:40:33.450Z,2.20
2023-03-07T03:43:02.526Z,2.22
2023-03-07T03:45:31.560Z,2.67
2023-03-07T03:48:01.281Z,2.10
2023-03-07T03:50:31.881Z,2.25
2023-03-07T03:53:01.390Z,2.17
2023-03-07T03:55:30.486Z,2.22
2023-03-07T03:58:00.472Z,2.58
2023-03-07T04:00:29.644Z,2.40
2023-03-07T04:02:58.972Z,2.40
2023-03-07T04:05:28.200Z,2.20
2023-03-07T04:07:58.570Z,2.13
2023-03-07T04:10:27.855Z,2.50
2023-03-07T04:12:56.923Z,2.40
2023-03-07T04:15:26.081Z,2.55
2023-03-07T04:17:55.171Z,2.10
2023-03-07T04:20:24.165Z,2.30
2023-03-07T04:22:53.480Z,2.60
2023-03-07T04:25:23.903Z,2.00
2023-03-07T04:27:53.108Z,1.80
2023-03-07T04:30:22.510Z,2.05
2023-03-07T04:32:51.597Z,2.10
2023-03-07T04:35:20.718Z,2.20
2023-03-07T04:37:50.665Z,2.20
2023-03-07T04:40:20.084Z,2.58
2023-03-07T04:42:50.505Z,2.40
2023-03-07T04:45:21.233Z,1.90
2023-03-07T04:47:50.362Z,2.20
2023-03-07T04:50:19.783Z,2.38
2023-03-07T04:52:50.522Z,2.10
2023-03-07T04:55:20.034Z,2.30
2023-03-07T04:57:52.106Z,2.50
2023-03-07T05:00:22.056Z,2.20
2023-03-07T05:02:52.214Z,2.40
2023-03-07T05:05:21.572Z,2.60
2023-03-07T05:07:51.573Z,2.13
2023-03-07T05:10:20.756Z,2.90
2023-03-07T05:12:51.450Z,2.10
2023-03-07T05:15:20.693Z,2.38
2023-03-07T05:17:49.910Z,2.13
2023-03-07T05:20:20.178Z,2.22
2023-03-07T05:22:49.201Z,2.27
2023-03-07T05:25:18.877Z,2.20
2023-03-07T05:27:48.297Z,2.67
2023-03-07T05:30:18.845Z,3.00
2023-03-07T05:32:47.907Z,2.30
2023-03-07T05:35:17.914Z,2.42
2023-03-07T05:37:48.196Z,3.05
2023-03-07T05:40:17.554Z,2.80
2023-03-07T05:42:49.137Z,2.03
2023-03-07T05:45:21.318Z,2.28
2023-03-07T05:47:51.393Z,2.25
2023-03-07T05:50:21.133Z,2.60
2023-03-07T05:52:50.661Z,2.58
2023-03-07T05:55:19.911Z,2.60
2023-03-07T05:57:49.167Z,2.80
2023-03-07T06:00:21.008Z,2.40
2023-03-07T06:02:56.242Z,2.80
2023-03-07T06:05:25.852Z,2.40
2023-03-07T06:07:55.620Z,2.22
2023-03-07T06:10:25.817Z,2.75
2023-03-07T06:12:56.037Z,2.30
2023-03-07T06:15:26.493Z,2.60
2023-03-07T06:18:02.368Z,2.42
2023-03-07T06:20:31.836Z,2.58
2023-03-07T06:23:02.190Z,2.03
2023-03-07T06:25:31.674Z,2.30
2023-03-07T06:28:01.557Z,2.55
2023-03-07T06:30:36.570Z,2.22
2023-03-07T06:33:06.038Z,2.45
2023-03-07T06:35:35.573Z,2.25
2023-03-07T06:38:04.719Z,2.20
2023-03-07T06:40:33.849Z,2.30
2023-03-07T06:43:03.561Z,2.50
2023-03-07T06:45:34.605Z,2.28
2023-03-07T06:48:03.832Z,2.33
2023-03-07T06:50:35.409Z,2.72
2023-03-07T06:53:06.334Z,2.20
2023-03-07T06:55:35.718Z,2.28
2023-03-07T06:58:05.162Z,2.95
2023-03-07T07:00:35.733Z,2.35
2023-03-07T07:03:05.266Z,2.45
2023-03-07T07:05:34.362Z,2.15
2023-03-07T07:08:03.464Z,2.30
2023-03-07T07:10:32.556Z,2.83
2023-03-07T07:13:01.725Z,2.10
2023-03-07T07:15:30.894Z,2.22
2023-03-07T07:18:01.488Z,2.00
2023-03-07T07:20:30.565Z,1.65
2023-03-07T07:22:59.621Z,2.58
2023-03-07T07:25:28.693Z,2.20
2023-03-07T07:27:57.792Z,1.88
2023-03-07T07:30:27.118Z,2.40
2023-03-07T07:32:56.348Z,2.30
2023-03-07T07:35:27.008Z,2.05
2023-03-07T07:37:57.088Z,2.10
2023-03-07T07:40:26.158Z,1.98
2023-03-07T07:42:55.450Z,2.10
2023-03-07T07:45:33.844Z,2.17
2023-03-07T07:48:03.071Z,2.10
2023-03-07T07:50:33.548Z,2.00
2023-03-07T07:53:02.748Z,2.55
2023-03-07T07:55:32.148Z,2.33
2023-03-07T07:58:01.310Z,3.03
2023-03-07T08:00:30.778Z,2.28
2023-03-07T08:03:01.088Z,2.08
2023-03-07T08:05:30.235Z,2.50
2023-03-07T08:08:00.715Z,2.40
2023-03-07T08:10:29.719Z,2.53
2023-03-07T08:12:58.883Z,2.47
2023-03-07T08:15:27.985Z,2.45
2023-03-07T08:17:56.997Z,2.38
2023-03-07T08:20:26.109Z,2.70
2023-03-07T08:22:55.154Z,2.53
2023-03-07T08:25:26.287Z,2.63
2023-03-07T08:30:26.505Z,2.53
2023-03-07T08:32:56.985Z,2.95
2023-03-07T08:35:27.705Z,2.63
2023-03-07T08:40:29.063Z,2.50
2023-03-07T08:42:59.518Z,2.88
2023-03-07T08:45:28.629Z,3.00
2023-03-07T08:47:58.487Z,2.70
2023-03-07T08:50:29.284Z,2.70
2023-03-07T08:52:58.952Z,2.78
2023-03-07T08:55:29.358Z,2.90
2023-03-07T08:57:58.395Z,2.85
2023-03-07T09:00:27.604Z,2.97
2023-03-07T09:02:58.463Z,2.80
2023-03-07T09:05:27.470Z,3.30
2023-03-07T09:07:56.544Z,3.08
2023-03-07T09:10:27.462Z,2.95
2023-03-07T09:12:58.616Z,3.25
2023-03-07T09:17:57.205Z,2.80
2023-03-07T09:20:26.337Z,3.30
2023-03-07T09:22:55.397Z,3.22
2023-03-07T09:25:24.705Z,2.75
2023-03-07T09:27:55.125Z,2.80
2023-03-07T09:30:28.241Z,2.88
2023-03-07T09:32:58.127Z,2.97
2023-03-07T09:35:27.133Z,3.20
2023-03-07T09:37:56.175Z,3.25
2023-03-07T09:40:28.141Z,2.90
2023-03-07T09:43:07.751Z,2.88
2023-03-07T09:48:54.393Z,2.85
2023-03-07T09:51:26.988Z,3.10
2023-03-07T09:53:59.039Z,2.50
2023-03-07T09:56:34.008Z,2.58
2023-03-07T09:59:22.004Z,3.22
2023-03-07T10:02:02.276Z,2.80
2023-03-07T10:04:41.362Z,2.85
2023-03-07T10:07:13.792Z,2.95
2023-03-07T10:09:43.448Z,2.60
2023-03-07T10:12:34.098Z,3.25
2023-03-07T10:15:18.332Z,2.90
2023-03-07T10:18:03.718Z,2.92
2023-03-07T10:20:40.396Z,2.53
2023-03-07T10:23:26.185Z,2.90
2023-03-07T10:25:58.196Z,2.20
2023-03-07T10:28:29.669Z,2.88
2023-03-07T10:31:02.582Z,2.90
2023-03-07T10:33:33.246Z,2.63
2023-03-07T10:36:08.456Z,2.85
2023-03-07T10:38:44.742Z,2.65
2023-03-07T10:41:16.633Z,2.50
2023-03-07T10:43:46.770Z,3.28
2023-03-07T10:46:26.871Z,3.55
2023-03-07T10:49:10.972Z,2.78
2023-03-07T10:51:51.677Z,2.88
2023-03-07T10:54:27.229Z,2.80
2023-03-07T10:57:09.015Z,3.33
2023-03-07T10:59:40.106Z,3.20
2023-03-07T11:02:35.578Z,2.90
2023-03-07T11:05:29.011Z,3.25
2023-03-07T11:07:58.522Z,4.00
2023-03-07T11:10:34.233Z,3.40
2023-03-07T11:13:15.335Z,3.60
2023-03-07T11:15:45.799Z,2.75
2023-03-07T11:18:29.112Z,3.75
2023-03-07T11:21:00.165Z,4.63
2023-03-07T11:23:31.611Z,2.15
2023-03-07T11:26:16.415Z,2.10
2023-03-07T11:28:45.629Z,3.67
2023-03-07T11:31:22.143Z,3.15
2023-03-07T11:33:59.566Z,2.55
2023-03-07T11:36:33.532Z,2.58
2023-03-07T11:39:08.362Z,2.33
2023-03-07T11:41:38.728Z,2.15
2023-03-07T11:44:27.113Z,1.97
2023-03-07T11:47:26.082Z,1.40
2023-03-07T11:50:12.179Z,2.53
2023-03-07T11:53:03.193Z,2.00
2023-03-07T11:55:38.539Z,1.92
2023-03-07T11:58:27.165Z,1.50
2023-03-07T12:01:18.163Z,1.45
2023-03-07T12:04:12.088Z,1.60
2023-03-07T12:06:49.165Z,2.30
2023-03-07T12:09:30.033Z,1.75
2023-03-07T12:12:19.312Z,2.97
2023-03-07T12:14:56.583Z,1.52
2023-03-07T12:17:45.219Z,1.27
2023-03-07T12:20:27.195Z,1.77
2023-03-07T12:23:19.903Z,1.40
2023-03-07T12:25:54.165Z,1.50
2023-03-07T12:28:27.849Z,1.30
2023-03-07T12:31:08.495Z,1.23
2023-03-07T12:34:04.018Z,1.30
2023-03-07T12:36:39.582Z,1.30
2023-03-07T12:39:20.075Z,1.75
2023-03-07T12:42:00.772Z,1.40
2023-03-07T12:44:43.270Z,1.38
2023-03-07T12:47:21.124Z,1.00
2023-03-07T12:49:56.804Z,1.02
2023-03-07T12:52:43.371Z,1.30
2023-03-07T12:55:24.263Z,1.15
2023-03-07T12:58:04.493Z,1.40
2023-03-07T13:00:36.841Z,1.00
2023-03-07T13:03:07.564Z,1.05
2023-03-07T13:05:38.388Z,1.33
2023-03-07T13:08:09.064Z,1.60
2023-03-07T13:10:38.548Z,1.02
2023-03-07T13:13:50.107Z,1.05
2023-03-07T13:19:52.426Z,0.90
2023-03-07T13:22:57.711Z,1.05
2023-03-07T13:25:51.900Z,0.85
2023-03-07T13:28:44.488Z,1.27
2023-03-07T13:31:30.816Z,0.90
2023-03-07T13:34:41.538Z,0.90
2023-03-07T13:37:50.545Z,0.90
2023-03-07T13:40:46.462Z,0.90
2023-03-07T13:43:58.304Z,0.80
2023-03-07T13:46:49.447Z,0.90
2023-03-07T13:49:44.818Z,0.80
2023-03-07T13:52:32.897Z,1.05
2023-03-07T13:55:04.810Z,1.00
2023-03-07T13:57:41.859Z,0.93
2023-03-07T14:00:33.352Z,1.00
2023-03-07T14:05:35.588Z,1.00
2023-03-07T14:08:05.189Z,1.27
2023-03-07T14:10:35.150Z,1.00
2023-03-07T14:13:50.994Z,1.40
2023-03-07T14:16:32.393Z,1.13
2023-03-07T14:19:20.549Z,1.20
2023-03-07T14:21:56.725Z,0.80
2023-03-07T14:24:46.384Z,0.80
2023-03-07T14:27:16.862Z,1.05
2023-03-07T14:29:51.038Z,0.98
2023-03-07T14:32:24.541Z,0.98
2023-03-07T14:34:55.118Z,1.55
2023-03-07T14:37:26.509Z,0.70
2023-03-07T14:40:10.912Z,1.00
2023-03-07T14:42:46.865Z,1.20
2023-03-07T14:45:25.082Z,0.80
2023-03-07T14:48:16.391Z,1.13
2023-03-07T14:50:46.973Z,2.05
2023-03-07T14:53:21.853Z,0.90
2023-03-07T14:55:54.068Z,1.00
2023-03-07T14:58:25.317Z,0.63
2023-03-07T15:03:30.091Z,0.77
2023-03-07T15:06:02.866Z,0.90
2023-03-07T15:08:35.265Z,0.90
2023-03-07T15:11:08.872Z,1.70
2023-03-07T15:13:45.690Z,0.90
2023-03-07T15:16:20.977Z,1.17
2023-03-07T15:18:53.442Z,2.13
2023-03-07T15:21:28.241Z,3.00
2023-03-07T15:23:59.596Z,2.20
2023-03-07T15:26:30.380Z,2.20
2023-03-07T15:29:01.470Z,1.05
2023-03-07T15:34:21.818Z,1.10
2023-03-07T15:36:52.515Z,0.90
2023-03-07T15:39:34.772Z,1.63
2023-03-07T15:42:06.564Z,1.02
2023-03-07T15:44:36.477Z,1.17
2023-03-07T15:47:15.200Z,0.60
2023-03-07T15:49:48.473Z,0.60
2023-03-07T15:52:34.796Z,0.90
2023-03-07T15:55:08.182Z,0.70
2023-03-07T15:57:40.855Z,1.20
2023-03-07T16:00:19.048Z,0.88
2023-03-07T16:02:48.781Z,0.93
2023-03-07T16:05:38.249Z,1.10
2023-03-07T16:08:14.251Z,0.90
2023-03-07T16:10:49.121Z,0.60
2023-03-07T16:13:21.320Z,0.90
2023-03-07T16:16:04.688Z,1.00
2023-03-07T16:18:34.901Z,0.73
2023-03-07T16:21:03.984Z,0.85
2023-03-07T16:23:35.094Z,0.60
2023-03-07T16:26:06.135Z,1.30
2023-03-07T16:28:35.624Z,0.65
2023-03-07T16:31:04.798Z,0.57
2023-03-07T16:33:33.865Z,1.25
2023-03-07T16:36:02.894Z,0.90
2023-03-07T16:38:33.289Z,1.02
2023-03-07T16:41:04.481Z,0.50
2023-03-07T16:46:05.431Z,0.95
2023-03-07T16:48:35.132Z,1.40
2023-03-07T16:51:06.156Z,1.35
2023-03-07T16:53:36.584Z,1.08
2023-03-07T16:56:05.746Z,1.63
2023-03-07T16:58:36.588Z,1.05
2023-03-07T17:01:06.542Z,1.00
2023-03-07T17:03:35.553Z,1.42
2023-03-07T17:06:04.717Z,1.63
2023-03-07T17:08:33.757Z,1.20
2023-03-07T17:11:04.265Z,0.88
2023-03-07T17:13:33.995Z,1.20
2023-03-07T17:16:03.249Z,0.82
2023-03-07T17:18:33.964Z,1.10
2023-03-07T17:21:03.777Z,1.60
2023-03-07T17:23:32.778Z,1.00
2023-03-07T17:26:03.266Z,1.33
2023-03-07T17:28:32.307Z,2.60
2023-03-07T17:31:01.589Z,2.65
2023-03-07T17:33:30.640Z,1.08
2023-03-07T17:36:00.995Z,1.05
2023-03-07T17:38:30.130Z,1.20
2023-03-07T17:40:59.159Z,1.60
2023-03-07T17:43:29.779Z,1.20
2023-03-07T17:45:58.907Z,1.88
2023-03-07T17:48:28.099Z,2.38
2023-03-07T17:50:57.180Z,2.00
2023-03-07T17:53:26.307Z,2.22
2023-03-07T17:55:55.366Z,1.05
2023-03-07T17:58:24.445Z,1.90
2023-03-07T18:00:54.915Z,2.70
2023-03-07T18:03:23.908Z,4.53
2023-03-07T18:05:52.989Z,7.50
2023-03-07T18:08:22.112Z,12.20
2023-03-07T18:10:51.199Z,5.43
2023-03-07T18:13:21.856Z,4.53
2023-03-07T18:15:50.940Z,4.50
2023-03-07T18:18:21.344Z,5.40
2023-03-07T18:20:58.831Z,9.82
2023-03-07T18:23:28.765Z,13.52
2023-03-07T18:25:58.756Z,13.90
2023-03-07T18:28:28.760Z,16.92
2023-03-07T18:31:01.516Z,19.40
2023-03-07T18:33:33.109Z,21.73
2023-03-07T18:36:03.686Z,22.10
2023-03-07T18:38:33.236Z,23.92
2023-03-07T18:41:07.269Z,24.27
2023-03-07T18:43:36.627Z,25.55
2023-03-07T18:46:06.237Z,23.80
2023-03-07T18:48:37.103Z,20.77
2023-03-07T18:51:07.983Z,20.77
2023-03-07T18:53:37.971Z,26.40
2023-03-07T18:56:09.235Z,16.90
2023-03-07T18:58:39.124Z,10.48
2023-03-07T19:01:13.328Z,10.43
2023-03-07T19:03:44.661Z,15.73
2023-03-07T19:06:14.484Z,23.00
2023-03-07T19:08:43.648Z,39.67
2023-03-07T19:11:14.586Z,37.58
2023-03-07T19:13:44.345Z,45.00
2023-03-07T19:16:16.007Z,34.00
2023-03-07T19:18:47.143Z,28.23
2023-03-07T19:21:19.151Z,16.15
2023-03-07T19:23:49.747Z,10.60
2023-03-07T19:26:20.034Z,8.77
2023-03-07T19:28:50.986Z,6.57
2023-03-07T19:31:22.814Z,6.78
2023-03-07T19:33:54.017Z,11.32
2023-03-07T19:38:59.089Z,7.10
2023-03-07T19:41:30.311Z,6.53
2023-03-07T19:46:29.476Z,6.97
2023-03-07T19:49:00.128Z,8.27
2023-03-07T19:51:29.119Z,7.68
2023-03-07T19:54:00.207Z,6.45
2023-03-07T19:56:31.866Z,6.72
2023-03-07T19:59:03.030Z,7.10
2023-03-07T20:04:04.900Z,7.70
2023-03-07T20:06:34.987Z,7.50
2023-03-07T20:09:04.282Z,7.90
2023-03-07T20:11:35.010Z,8.57
2023-03-07T20:14:06.059Z,10.25
2023-03-07T20:16:35.881Z,9.13
2023-03-07T20:19:10.079Z,9.75
2023-03-07T20:21:40.369Z,10.02
2023-03-07T20:24:10.253Z,11.38
2023-03-07T20:26:40.774Z,11.32
2023-03-07T20:29:13.173Z,8.65
2023-03-07T20:31:42.324Z,11.10
2023-03-07T20:34:13.201Z,10.77
2023-03-07T20:36:43.519Z,10.82
2023-03-07T20:39:14.669Z,12.13
2023-03-07T20:41:45.223Z,13.25
2023-03-07T20:44:16.188Z,18.13
2023-03-07T20:46:45.347Z,16.90
2023-03-07T20:49:16.813Z,16.17
2023-03-07T20:51:45.880Z,13.82
2023-03-07T20:54:17.792Z,16.85
2023-03-07T20:56:48.572Z,27.58
2023-03-07T20:59:19.158Z,27.25
2023-03-07T21:01:48.921Z,25.60
2023-03-07T21:04:21.111Z,25.20
2023-03-07T21:06:50.701Z,31.42
2023-03-07T21:09:20.578Z,27.38
2023-03-07T21:11:51.220Z,17.98
2023-03-07T21:14:21.407Z,16.33
2023-03-07T21:16:50.452Z,14.37
2023-03-07T21:19:21.161Z,13.43
2023-03-07T21:21:50.310Z,13.82
2023-03-07T21:24:19.281Z,13.85
2023-03-07T21:26:48.452Z,13.23
2023-03-07T21:29:17.504Z,13.07
2023-03-07T21:31:46.637Z,13.23
2023-03-07T21:34:15.842Z,13.20
2023-03-07T21:36:47.994Z,13.98
2023-03-07T21:39:17.010Z,13.68
2023-03-07T21:41:48.933Z,11.32
2023-03-07T21:44:18.142Z,10.50
2023-03-07T21:46:47.306Z,11.32
2023-03-07T21:49:17.796Z,11.70
2023-03-07T21:51:48.289Z,13.27
2023-03-07T21:54:17.487Z,14.15
2023-03-07T21:56:46.577Z,12.98
2023-03-07T21:59:15.645Z,14.70
2023-03-07T22:01:44.709Z,15.38
2023-03-07T22:04:13.866Z,18.30
2023-03-07T22:06:42.903Z,15.65
2023-03-07T22:09:13.453Z,16.42
2023-03-07T22:11:42.447Z,19.65
2023-03-07T22:14:11.471Z,16.58
2023-03-07T22:16:40.573Z,13.25
2023-03-07T22:19:09.572Z,12.48
2023-03-07T22:21:38.585Z,9.57
2023-03-07T22:24:07.736Z,9.45
2023-03-07T22:26:38.491Z,10.77
2023-03-07T22:29:07.607Z,9.60
2023-03-07T22:31:36.725Z,8.75
2023-03-07T22:34:05.857Z,9.23
2023-03-07T22:36:35.007Z,13.00
2023-03-07T22:39:04.340Z,11.90
2023-03-07T22:41:34.449Z,13.18
2023-03-07T22:44:04.944Z,11.07
2023-03-07T22:46:33.959Z,17.50
2023-03-07T22:49:02.946Z,4.57
2023-03-07T22:51:31.987Z,4.25
2023-03-07T22:54:01.067Z,1.70
2023-03-07T22:56:30.107Z,1.48
2023-03-07T22:58:59.308Z,1.55
2023-03-07T23:01:30.369Z,1.50
2023-03-07T23:04:01.037Z,1.50
2023-03-07T23:06:32.177Z,1.63
2023-03-07T23:11:32.702Z,1.80
2023-03-07T23:14:02.123Z,0.90
2023-03-07T23:16:36.292Z,1.40
2023-03-07T23:19:05.431Z,1.80
2023-03-07T23:21:35.046Z,1.60
2023-03-07T23:24:05.171Z,0.98
2023-03-07T23:26:35.582Z,1.00
2023-03-07T23:29:05.102Z,1.20
2023-03-07T23:31:37.960Z,0.98
2023-03-07T23:34:09.299Z,0.98
2023-03-07T23:36:38.277Z,0.75
2023-03-07T23:39:08.453Z,1.13
2023-03-07T23:41:37.517Z,1.48
2023-03-07T23:44:06.985Z,0.90
2023-03-07T23:46:37.385Z,1.10
2023-03-07T23:49:06.938Z,0.95
2023-03-07T23:51:35.935Z,0.80
2023-03-07T23:54:05.174Z,0.75
2023-03-07T23:56:34.314Z,0.77
2023-03-07T23:59:03.577Z,0.73
